Etusivu
METAR-TAF:

METAR-TAF

Lentoasemat :

Kuwaitin kansainvälinen lentoasema

Kuwait, Kuwait

Leveyspiiri: 29-13N, Pituuspiiri: 047-59E, korkeus merenpinnasta: 55 m

Tämänhetkinen sää

Tämä raportti tehtiin 32 minuuttia sitten, kello 04.00 UTC
Tuuli 4 kn etelästä/lounaasta
Lämpötila 13°C
Kosteus 62%
Ilmanpaine 1017 hPa
Näkyvyys: 7000 m

METAR: OKBK 130400Z 21004KT 7000 NSC 13/06 Q1017 NOSIG

Aika: 07:32 (04:32 UTC)

Sääennuste

Tämä raportti tehtiin 5 tuntia ja 47 minuuttia sitten, kello 22.45 UTC
Ennuste voimassa 13. päivästä klo 00 UTC - 14. päivään klo 06 UTC
Tuuli 3 kn eri suunnista
Näkyvyys: 7000 m
Ajoittain
13. päivästä klo 02 UTC - 13. päivään klo 08 UTC
Näkyvyys: 3500 m

TAF: OKBK 122245Z 1300/1406 VRB03KT 7000 NSC TEMPO 1302/1308 3500 HZ/DU

Säähavainnot ja -ennusteet yli 4000 lentoasemalta (METAR- ja TAF-raportit).

Käytössä olevat sääasemat on merkitty karttaan keltaisilla ja punaisilla pisteillä.

Aseta hiiri pisteen päälle nähdäksesi sääaseman nimen.

Klikkaa sitten nähdäksesi säähavainnot ja -ennusteet.

Kartan vaihtaminen: klikkaa mustalla rastilla varustettuja vihreitä pisteitä, niin voit zoomata sisään; viivalla varustettua vihreää pistettä, niin voit zoomata ulos tai vihreitä nuolia, niin pääset viereisille kartoille.


METAR-TAF: